Time;durP1;ratioP1;P1;durP2;ratioP2;P2;SDS_P1;SDS_P2;PMS_P1;PMS_P2;Temp;Humidity;BMP_temperature;BMP_pressure;BME280_temperature;BME280_humidity;BME280_pressure;Samples;Min_cycle;Max_cycle;Signal;HPM_P1;HPM_P2
2023/09/17 00:02:15;;;;;;;;;;;;;;;24.63;60.96;101429.75;7397904;19;1864;-38
2023/09/17 00:04:43;;;;;;;;;;;;;;;24.62;61.50;101428.91;7399779;19;1099;-37
2023/09/17 00:07:12;;;;;;;;;;;;;;;24.61;61.23;101425.38;7398440;19;1756;-37
2023/09/17 00:09:40;;;;;;;;;;;;;;;24.64;61.15;101428.78;7397563;19;1475;-37
2023/09/17 00:12:11;;;;;;;;;;;;;;;24.65;60.99;101438.56;7395881;19;2453;-37
2023/09/17 00:14:39;;;;;;;;;;;;;;;24.59;60.94;101410.28;7396365;19;1539;-38
2023/09/17 00:17:08;;;;;;;;;;;;;;;24.63;60.96;101437.88;7398006;19;1736;-37
2023/09/17 00:19:36;;;;;;;;;;;;;;;24.68;60.85;101435.56;7397398;19;1503;-37
2023/09/17 00:22:08;;;;;;;;;;;;;;;24.67;60.56;101436.56;7398066;19;1531;-38
2023/09/17 00:24:37;;;;;;;;;;;;;;;24.71;60.68;101435.22;7396443;19;2221;-38
2023/09/17 00:27:05;;;;;;;;;;;;;;;24.69;60.83;101440.81;7397705;19;1896;-37
2023/09/17 00:29:36;;;;;;;;;;;;;;;24.68;60.44;101436.41;7394647;19;1832;-37
2023/09/17 00:32:05;;;;;;;;;;;;;;;24.64;60.68;101453.94;7397717;19;1684;-37
2023/09/17 00:34:33;;;;;;;;;;;;;;;24.63;60.82;101457.69;7398926;19;1016;-37
2023/09/17 00:37:03;;;;;;;;;;;;;;;24.59;60.66;101448.16;7397316;19;1934;-38
2023/09/17 00:39:31;;;;;;;;;;;;;;;24.56;60.95;101446.63;7396782;19;1753;-37
2023/09/17 00:41:59;;;;;;;;;;;;;;;24.58;60.77;101428.38;7395911;19;1863;-37
2023/09/17 00:44:28;;;;;;;;;;;;;;;24.60;60.79;101441.75;7395760;19;1826;-37
2023/09/17 00:47:00;;;;;;;;;;;;;;;24.58;60.74;101436.50;7396481;19;1744;-37
2023/09/17 00:49:29;;;;;;;;;;;;;;;24.65;60.69;101433.16;7396971;19;1878;-37
2023/09/17 00:51:58;;;;;;;;;;;;;;;24.61;60.58;101432.63;7397052;19;1716;-37
2023/09/17 00:54:28;;;;;;;;;;;;;;;24.63;60.37;101432.47;7396531;19;1854;-37
2023/09/17 00:56:57;;;;;;;;;;;;;;;24.60;60.65;101437.19;7397387;19;1811;-37
2023/09/17 00:59:25;;;;;;;;;;;;;;;24.60;60.66;101436.34;7396710;19;1851;-37
2023/09/17 01:01:54;;;;;;;;;;;;;;;24.63;60.42;101429.75;7395792;19;2370;-37
2023/09/17 01:04:26;;;;;;;;;;;;;;;24.67;60.41;101431.16;7394288;19;1853;-37
2023/09/17 01:06:55;;;;;;;;;;;;;;;24.63;60.49;101440.59;7396361;19;1738;-37
2023/09/17 01:09:25;;;;;;;;;;;;;;;24.58;60.48;101438.34;7395906;19;1585;-37
2023/09/17 01:11:54;;;;;;;;;;;;;;;24.53;60.36;101421.75;7395579;19;1749;-37
2023/09/17 01:14:22;;;;;;;;;;;;;;;24.60;60.64;101439.06;7396287;19;1590;-37
2023/09/17 01:16:51;;;;;;;;;;;;;;;24.58;60.44;101431.09;7396938;19;1954;-37
2023/09/17 01:19:23;;;;;;;;;;;;;;;24.60;60.12;101431.78;7395956;19;1676;-37
2023/09/17 01:22:01;;;;;;;;;;;;;;;24.57;60.35;101428.53;7395842;19;1812;-37
2023/09/17 01:24:40;;;;;;;;;;;;;;;24.60;60.40;101436.34;7393253;19;1872;-37
2023/09/17 01:27:12;;;;;;;;;;;;;;;24.56;60.19;101418.72;7395786;19;1962;-38
2023/09/17 01:29:42;;;;;;;;;;;;;;;24.56;60.26;101410.63;7395357;19;1943;-37
2023/09/17 01:32:11;;;;;;;;;;;;;;;24.57;60.23;101423.13;7395893;19;1728;-37
2023/09/17 01:34:40;;;;;;;;;;;;;;;24.55;60.23;101417.91;7396151;19;1027;-37
2023/09/17 01:37:11;;;;;;;;;;;;;;;24.53;60.29;101419.03;7396188;19;1803;-37
2023/09/17 01:39:43;;;;;;;;;;;;;;;24.52;60.58;101401.97;7394430;19;1852;-37
2023/09/17 01:42:15;;;;;;;;;;;;;;;24.50;60.20;101409.38;7399984;19;1876;-37
2023/09/17 01:44:44;;;;;;;;;;;;;;;24.52;60.52;101407.38;7399483;19;1862;-38
2023/09/17 01:47:13;;;;;;;;;;;;;;;24.53;60.44;101409.09;7402138;19;1747;-37
2023/09/17 01:49:42;;;;;;;;;;;;;;;24.59;60.07;101413.00;7403729;19;1745;-38
2023/09/17 01:52:11;;;;;;;;;;;;;;;24.49;60.27;101404.09;7402511;19;1481;-38
2023/09/17 01:54:39;;;;;;;;;;;;;;;24.48;60.50;101410.53;7401457;19;1865;-37
2023/09/17 01:57:08;;;;;;;;;;;;;;;24.52;60.18;101411.94;7403588;19;1923;-37
2023/09/17 01:59:39;;;;;;;;;;;;;;;24.51;60.29;101416.50;7402736;19;1772;-37
2023/09/17 02:02:07;;;;;;;;;;;;;;;24.51;60.09;101418.34;7403142;19;1757;-38
2023/09/17 02:04:35;;;;;;;;;;;;;;;24.54;60.20;101399.13;7401786;19;1837;-37
2023/09/17 02:07:04;;;;;;;;;;;;;;;24.51;60.14;101399.41;7402437;19;1422;-37
2023/09/17 02:09:33;;;;;;;;;;;;;;;24.51;60.19;101408.41;7402426;19;1751;-37
2023/09/17 02:12:01;;;;;;;;;;;;;;;24.56;60.09;101411.47;7401967;19;1640;-38
2023/09/17 02:14:29;;;;;;;;;;;;;;;24.53;60.28;101410.91;7402075;19;1742;-37
2023/09/17 02:17:00;;;;;;;;;;;;;;;24.52;60.19;101396.56;7402429;19;1859;-38
2023/09/17 02:19:30;;;;;;;;;;;;;;;24.49;60.22;101412.22;7402073;19;1406;-37
2023/09/17 02:21:59;;;;;;;;;;;;;;;24.53;59.95;101405.50;7402765;19;1780;-37
2023/09/17 02:24:27;;;;;;;;;;;;;;;24.54;60.07;101407.22;7399083;19;1863;-37
2023/09/17 02:26:55;;;;;;;;;;;;;;;24.59;59.90;101416.56;7400652;19;1834;-37
2023/09/17 02:29:24;;;;;;;;;;;;;;;24.54;59.90;101410.78;7402132;19;1841;-37
2023/09/17 02:31:52;;;;;;;;;;;;;;;24.52;60.12;101418.19;7402917;19;1150;-37
2023/09/17 02:34:23;;;;;;;;;;;;;;;24.52;59.84;101412.78;7401048;19;1961;-37
2023/09/17 02:36:51;;;;;;;;;;;;;;;24.57;60.15;101415.00;7400328;19;1875;-37
2023/09/17 02:39:20;;;;;;;;;;;;;;;24.50;59.94;101409.38;7398361;19;1876;-37
2023/09/17 02:41:48;;;;;;;;;;;;;;;24.51;59.94;101404.81;7401424;19;1823;-37
2023/09/17 02:44:16;;;;;;;;;;;;;;;24.51;59.85;101408.41;7399476;19;1844;-37
2023/09/17 02:46:46;;;;;;;;;;;;;;;24.44;60.04;101399.16;7400536;19;1816;-37
2023/09/17 02:49:14;;;;;;;;;;;;;;;24.44;60.19;101414.56;7400952;19;1656;-37
2023/09/17 02:51:45;;;;;;;;;;;;;;;24.44;60.13;101411.84;7399561;19;1757;-37
2023/09/17 02:54:13;;;;;;;;;;;;;;;24.47;60.09;101409.69;7397485;19;1478;-37
2023/09/17 02:56:42;;;;;;;;;;;;;;;24.45;60.20;101411.66;7400440;19;1748;-37
2023/09/17 02:59:11;;;;;;;;;;;;;;;24.45;60.05;101406.25;7400814;19;1566;-37
2023/09/17 03:01:40;;;;;;;;;;;;;;;24.53;59.89;101414.50;7400768;19;1846;-37
2023/09/17 03:04:08;;;;;;;;;;;;;;;24.51;59.96;101410.22;7398376;19;1950;-37
2023/09/17 03:06:36;;;;;;;;;;;;;;;24.50;59.99;101403.97;7400344;19;1736;-38
2023/09/17 03:09:11;;;;;;;;;;;;;;;24.47;59.95;101398.88;7398816;19;2365;-38
2023/09/17 03:11:39;;;;;;;;;;;;;;;24.45;60.22;101403.56;7400619;19;1843;-37
2023/09/17 03:14:07;;;;;;;;;;;;;;;24.47;60.00;101409.69;7400155;19;1797;-39
2023/09/17 03:16:36;;;;;;;;;;;;;;;24.43;60.13;101410.97;7400759;19;1958;-37
2023/09/17 03:19:04;;;;;;;;;;;;;;;24.45;59.91;101416.22;7399822;19;1820;-37
2023/09/17 03:21:34;;;;;;;;;;;;;;;24.48;59.87;101414.06;7399679;19;1724;-38
2023/09/17 03:24:02;;;;;;;;;;;;;;;24.43;60.13;101408.28;7398726;19;1854;-38
2023/09/17 03:26:33;;;;;;;;;;;;;;;24.46;59.93;101416.09;7399616;19;1788;-37
2023/09/17 03:29:02;;;;;;;;;;;;;;;24.50;59.71;101405.81;7399695;19;1846;-37
2023/09/17 03:31:30;;;;;;;;;;;;;;;24.51;59.77;101405.69;7399306;19;1890;-37
2023/09/17 03:33:58;;;;;;;;;;;;;;;24.49;59.69;101409.50;7398535;19;1836;-38
2023/09/17 03:36:27;;;;;;;;;;;;;;;24.44;59.84;101410.00;7398650;19;1742;-37
2023/09/17 03:38:55;;;;;;;;;;;;;;;24.40;59.91;101403.19;7398714;19;1799;-38
2023/09/17 03:41:23;;;;;;;;;;;;;;;24.34;60.12;101401.13;7399551;19;1986;-38
2023/09/17 03:43:54;;;;;;;;;;;;;;;24.32;59.86;101400.44;7397488;19;1948;-38
2023/09/17 03:46:22;;;;;;;;;;;;;;;24.27;60.04;101397.31;7397770;19;1541;-37
2023/09/17 03:48:51;;;;;;;;;;;;;;;24.28;59.89;101407.16;7397535;19;1523;-37
2023/09/17 03:51:19;;;;;;;;;;;;;;;24.33;59.97;101407.50;7398677;19;1522;-37
2023/09/17 03:53:47;;;;;;;;;;;;;;;24.40;59.73;101414.00;7398374;19;1492;-37
2023/09/17 03:56:17;;;;;;;;;;;;;;;24.41;59.58;101413.00;7398805;19;1538;-37
2023/09/17 03:58:45;;;;;;;;;;;;;;;24.38;59.55;101422.25;7397400;19;1744;-37
2023/09/17 04:01:18;;;;;;;;;;;;;;;24.41;59.58;101419.25;7397947;19;1670;-37
2023/09/17 04:03:47;;;;;;;;;;;;;;;24.44;59.51;101414.56;7397878;19;1840;-37
2023/09/17 04:06:15;;;;;;;;;;;;;;;24.39;59.83;101423.97;7398538;19;1559;-37
2023/09/17 04:08:43;;;;;;;;;;;;;;;24.38;59.62;101407.91;7398266;19;1322;-37
2023/09/17 04:11:17;;;;;;;;;;;;;;;24.39;59.78;101417.69;7395158;19;1951;-37
2023/09/17 04:13:45;;;;;;;;;;;;;;;24.43;59.44;101424.50;7397878;19;1469;-38
2023/09/17 04:16:20;;;;;;;;;;;;;;;24.39;59.50;101417.69;7396518;19;1756;-37
2023/09/17 04:18:49;;;;;;;;;;;;;;;24.38;59.67;101426.84;7396378;19;1582;-38
2023/09/17 04:21:17;;;;;;;;;;;;;;;24.48;59.71;101419.47;7394330;19;1436;-37
2023/09/17 04:23:46;;;;;;;;;;;;;;;24.51;59.46;101421.91;7395317;19;1883;-37
2023/09/17 04:26:15;;;;;;;;;;;;;;;24.45;59.75;101408.97;7395777;19;1440;-38
2023/09/17 04:28:46;;;;;;;;;;;;;;;24.54;60.75;101421.59;7397352;19;1553;-38
2023/09/17 04:31:17;;;;;;;;;;;;;;;24.81;60.01;101425.19;7396730;19;1477;-37
2023/09/17 04:33:45;;;;;;;;;;;;;;;25.10;60.79;101424.00;7396888;19;1699;-37
2023/09/17 04:36:14;;;;;;;;;;;;;;;25.31;61.12;101420.97;7396299;19;1517;-37
2023/09/17 04:38:43;;;;;;;;;;;;;;;25.24;60.88;101434.28;7396510;19;1859;-37
2023/09/17 04:41:11;;;;;;;;;;;;;;;24.88;59.55;101434.34;7397093;19;1462;-37
2023/09/17 04:43:39;;;;;;;;;;;;;;;24.68;62.51;101436.41;7396152;19;1830;-38
2023/09/17 04:46:08;;;;;;;;;;;;;;;24.60;61.44;101439.88;7394508;19;1750;-38
2023/09/17 04:48:39;;;;;;;;;;;;;;;24.56;62.16;101445.78;7394452;19;1554;-37
2023/09/17 04:51:08;;;;;;;;;;;;;;;24.48;63.16;101437.56;7395993;19;1607;-37
2023/09/17 04:53:36;;;;;;;;;;;;;;;24.50;63.60;101441.84;7395405;19;1665;-37
2023/09/17 04:56:04;;;;;;;;;;;;;;;24.49;63.15;101440.13;7395942;19;1542;-37
2023/09/17 04:58:33;;;;;;;;;;;;;;;24.52;63.25;101441.69;7397024;19;1463;-37
2023/09/17 05:01:01;;;;;;;;;;;;;;;24.80;62.77;101431.59;7396176;19;1581;-38
2023/09/17 05:03:29;;;;;;;;;;;;;;;25.35;61.20;101434.00;7395720;19;1541;-38
2023/09/17 05:06:00;;;;;;;;;;;;;;;25.52;59.64;101431.38;7394413;19;1857;-38
2023/09/17 05:08:29;;;;;;;;;;;;;;;25.49;59.20;101445.25;7393462;19;1520;-38
2023/09/17 05:10:57;;;;;;;;;;;;;;;25.12;59.99;101430.94;7392421;19;1815;-38
2023/09/17 05:13:25;;;;;;;;;;;;;;;25.23;60.41;101435.28;7394190;19;1566;-37
2023/09/17 05:15:54;;;;;;;;;;;;;;;25.17;58.89;101438.63;7388613;19;1547;-38
2023/09/17 05:18:22;;;;;;;;;;;;;;;25.13;59.65;101448.06;7391381;19;1531;-37
2023/09/17 05:20:53;;;;;;;;;;;;;;;25.08;60.26;101448.53;7391813;19;1866;-37
2023/09/17 05:23:24;;;;;;;;;;;;;;;25.35;59.07;101452.13;7393720;19;1387;-37
2023/09/17 05:25:54;;;;;;;;;;;;;;;25.27;58.92;101443.91;7389770;19;1839;-38
2023/09/17 05:28:23;;;;;;;;;;;;;;;25.48;58.16;101446.25;7393952;19;1410;-38
2023/09/17 05:30:52;;;;;;;;;;;;;;;25.45;58.19;101454.72;7393479;19;1460;-38
2023/09/17 05:33:20;;;;;;;;;;;;;;;25.39;58.15;101432.66;7394071;19;1371;-38
2023/09/17 05:35:48;;;;;;;;;;;;;;;25.28;58.17;101442.94;7391516;19;1309;-37
2023/09/17 05:38:17;;;;;;;;;;;;;;;25.17;58.21;101435.91;7392350;19;1534;-38
2023/09/17 05:40:48;;;;;;;;;;;;;;;25.12;58.32;101449.91;7393591;19;1507;-37
2023/09/17 05:43:16;;;;;;;;;;;;;;;25.04;58.59;101438.19;7391456;19;1466;-38
2023/09/17 05:45:44;;;;;;;;;;;;;;;24.91;59.04;101447.59;7390700;19;1863;-38
2023/09/17 05:48:12;;;;;;;;;;;;;;;24.85;59.33;101450.91;7393289;19;1549;-37
2023/09/17 05:50:41;;;;;;;;;;;;;;;24.86;58.59;101447.19;7392809;19;1651;-38
2023/09/17 05:53:09;;;;;;;;;;;;;;;24.83;58.96;101462.88;7393407;19;1399;-38
2023/09/17 05:55:37;;;;;;;;;;;;;;;24.78;58.63;101460.66;7394224;19;1558;-38
2023/09/17 05:58:08;;;;;;;;;;;;;;;24.87;58.24;101454.31;7394002;19;1553;-37
2023/09/17 06:00:37;;;;;;;;;;;;;;;24.85;58.30;101467.16;7394855;19;1602;-38
2023/09/17 06:03:05;;;;;;;;;;;;;;;24.92;58.04;101468.19;7394573;19;1568;-37
2023/09/17 06:05:34;;;;;;;;;;;;;;;24.85;58.42;101467.16;7392966;19;1846;-37
2023/09/17 06:08:02;;;;;;;;;;;;;;;24.96;57.86;101463.34;7388880;19;1500;-38
2023/09/17 06:10:30;;;;;;;;;;;;;;;24.90;58.11;101472.09;7393541;19;1510;-38
2023/09/17 06:12:59;;;;;;;;;;;;;;;25.08;57.72;101462.06;7392014;19;1375;-37
2023/09/17 06:15:30;;;;;;;;;;;;;;;25.06;58.67;101469.47;7393246;19;1546;-38
2023/09/17 06:17:58;;;;;;;;;;;;;;;24.93;59.33;101485.28;7392497;19;1540;-37
2023/09/17 06:20:27;;;;;;;;;;;;;;;24.82;60.02;101462.03;7389965;19;1711;-38
2023/09/17 06:22:55;;;;;;;;;;;;;;;24.87;59.46;101484.06;7393139;19;1431;-38
2023/09/17 06:25:24;;;;;;;;;;;;;;;24.89;59.31;101473.94;7390623;19;1865;-38
2023/09/17 06:27:53;;;;;;;;;;;;;;;24.39;59.67;101479.88;7394556;19;1391;-37
2023/09/17 06:30:21;;;;;;;;;;;;;;;23.96;58.62;101486.88;7399168;19;1286;-37
2023/09/17 06:32:52;;;;;;;;;;;;;;;23.79;58.29;101497.44;7397420;19;1577;-37
2023/09/17 06:35:21;;;;;;;;;;;;;;;23.68;58.27;101489.53;7398462;19;1379;-37
2023/09/17 06:37:49;;;;;;;;;;;;;;;23.49;58.52;101486.91;7398206;19;1565;-37
2023/09/17 06:40:17;;;;;;;;;;;;;;;23.51;59.55;101476.81;7397488;19;1556;-37
2023/09/17 06:42:46;;;;;;;;;;;;;;;23.63;59.93;101491.81;7399492;19;1527;-37
2023/09/17 06:45:14;;;;;;;;;;;;;;;23.48;60.75;101496.84;7398930;19;1852;-37
2023/09/17 06:47:42;;;;;;;;;;;;;;;23.50;61.27;101486.75;7397861;19;1557;-37
2023/09/17 06:50:13;;;;;;;;;;;;;;;23.46;61.48;101501.56;7398879;19;1423;-37
2023/09/17 06:52:42;;;;;;;;;;;;;;;23.49;62.04;101514.75;7399063;19;1703;-37
2023/09/17 06:55:10;;;;;;;;;;;;;;;23.51;62.20;101503.81;7399776;19;1490;-37
2023/09/17 06:57:38;;;;;;;;;;;;;;;23.41;62.50;101501.97;7399980;19;1409;-37
2023/09/17 07:00:08;;;;;;;;;;;;;;;23.32;63.04;101510.97;7398112;19;1913;-37
2023/09/17 07:02:36;;;;;;;;;;;;;;;23.35;63.10;101499.88;7400302;19;1550;-37
2023/09/17 07:05:07;;;;;;;;;;;;;;;23.35;63.41;101510.66;7397486;19;1853;-37
2023/09/17 07:07:38;;;;;;;;;;;;;;;23.31;63.68;101506.56;7397641;19;1552;-37
2023/09/17 07:10:07;;;;;;;;;;;;;;;23.31;63.21;101514.66;7400011;19;1533;-37
2023/09/17 07:12:38;;;;;;;;;;;;;;;23.25;61.77;101511.69;7399611;19;1438;-51
2023/09/17 07:15:10;;;;;;;;;;;;;;;23.17;61.53;101515.13;7398553;19;1471;-37
2023/09/17 07:17:38;;;;;;;;;;;;;;;23.15;62.03;101517.09;7399120;19;1530;-37
2023/09/17 07:20:07;;;;;;;;;;;;;;;23.13;62.63;101511.84;7400070;19;1712;-37
2023/09/17 07:22:38;;;;;;;;;;;;;;;23.14;62.71;101527.06;7399376;19;1388;-37
2023/09/17 07:25:07;;;;;;;;;;;;;;;23.03;63.18;101511.00;7398596;19;1855;-37
2023/09/17 07:27:35;;;;;;;;;;;;;;;23.06;63.33;101520.66;7399238;19;1149;-37
2023/09/17 07:30:04;;;;;;;;;;;;;;;23.02;63.67;101517.44;7399641;19;1510;-37
2023/09/17 07:32:32;;;;;;;;;;;;;;;23.12;63.69;101526.34;7399213;19;1578;-37
2023/09/17 07:35:01;;;;;;;;;;;;;;;23.05;63.76;101524.38;7401337;19;1137;-38
2023/09/17 07:37:29;;;;;;;;;;;;;;;22.99;63.97;101509.56;7399129;19;1609;-37
2023/09/17 07:40:01;;;;;;;;;;;;;;;23.10;63.53;101511.28;7396599;19;1454;-37
2023/09/17 07:42:29;;;;;;;;;;;;;;;23.13;63.36;101516.41;7399033;19;1931;-37
2023/09/17 07:44:58;;;;;;;;;;;;;;;22.90;64.10;101516.69;7398447;19;1929;-37
2023/09/17 07:47:27;;;;;;;;;;;;;;;23.11;63.32;101513.84;7397596;19;1763;-37
2023/09/17 07:49:55;;;;;;;;;;;;;;;23.09;61.81;101520.38;7396750;19;1412;-37
2023/09/17 07:52:23;;;;;;;;;;;;;;;22.89;61.90;101525.75;7397227;19;1136;-37
2023/09/17 07:54:52;;;;;;;;;;;;;;;23.02;61.53;101515.56;7396158;19;1947;-37
2023/09/17 07:57:23;;;;;;;;;;;;;;;23.09;61.64;101518.53;7397557;19;1416;-37
2023/09/17 07:59:52;;;;;;;;;;;;;;;23.10;62.14;101528.34;7396213;19;1629;-37
2023/09/17 08:02:20;;;;;;;;;;;;;;;22.88;63.13;101497.09;7397007;19;1468;-37
2023/09/17 08:04:48;;;;;;;;;;;;;;;23.13;62.33;101497.50;7398432;19;1411;-37
2023/09/17 08:07:17;;;;;;;;;;;;;;;23.05;62.20;101492.00;7398799;19;1524;-37
2023/09/17 08:09:45;;;;;;;;;;;;;;;22.96;61.73;101494.53;7398189;19;1793;-37
2023/09/17 08:12:14;;;;;;;;;;;;;;;22.96;60.86;101491.84;7397700;19;1472;-37
2023/09/17 08:14:49;;;;;;;;;;;;;;;23.05;60.11;101492.00;7397016;19;1767;-37
2023/09/17 08:17:17;;;;;;;;;;;;;;;23.01;59.47;101491.41;7397075;19;1514;-37
2023/09/17 08:19:46;;;;;;;;;;;;;;;23.04;59.03;101485.75;7398221;19;1751;-37
2023/09/17 08:22:14;;;;;;;;;;;;;;;23.09;58.43;101488.84;7398214;19;1870;-37
2023/09/17 08:24:43;;;;;;;;;;;;;;;23.01;58.28;101480.59;7398483;19;1969;-37
2023/09/17 08:27:11;;;;;;;;;;;;;;;23.08;57.70;101483.59;7395483;19;1941;-37
2023/09/17 08:29:39;;;;;;;;;;;;;;;22.98;57.68;101476.38;7397135;19;1756;-37
2023/09/17 08:32:11;;;;;;;;;;;;;;;22.97;57.17;101479.19;7397933;19;1559;-37
2023/09/17 08:34:39;;;;;;;;;;;;;;;22.94;57.37;101485.75;7392964;19;1736;-37
2023/09/17 08:37:07;;;;;;;;;;;;;;;22.94;57.19;101469.56;7392971;19;1531;-37
2023/09/17 08:39:36;;;;;;;;;;;;;;;22.95;57.07;101492.81;7396046;19;1430;-37
2023/09/17 08:42:04;;;;;;;;;;;;;;;22.86;56.91;101474.81;7397576;19;1798;-37
2023/09/17 08:44:33;;;;;;;;;;;;;;;22.84;57.02;101469.56;7396658;19;1965;-37
2023/09/17 08:47:02;;;;;;;;;;;;;;;22.87;56.83;101463.03;7394628;19;1872;-37
2023/09/17 08:49:33;;;;;;;;;;;;;;;22.89;56.53;101470.97;7396663;19;1625;-37
2023/09/17 08:52:04;;;;;;;;;;;;;;;22.89;56.37;101466.44;7393915;19;1616;-37
2023/09/17 08:54:39;;;;;;;;;;;;;;;22.84;56.54;101469.56;7397099;19;1557;-37
2023/09/17 08:57:08;;;;;;;;;;;;;;;22.86;56.26;101466.72;7394846;19;1620;-37
2023/09/17 08:59:40;;;;;;;;;;;;;;;22.87;55.90;101471.13;7394850;19;1554;-37
2023/09/17 09:02:13;;;;;;;;;;;;;;;22.81;56.12;101474.38;7395687;19;1606;-38
2023/09/17 09:04:47;;;;;;;;;;;;;;;22.83;55.78;101475.94;7396987;19;1247;-37
2023/09/17 09:07:16;;;;;;;;;;;;;;;22.72;56.15;101476.13;7395811;19;1859;-37
2023/09/17 09:09:46;;;;;;;;;;;;;;;22.79;55.80;101476.38;7395481;19;1571;-37
2023/09/17 09:12:14;;;;;;;;;;;;;;;22.75;55.64;101481.19;7396367;19;1728;-37
2023/09/17 09:14:43;;;;;;;;;;;;;;;22.69;55.80;101465.59;7395472;19;1582;-37
2023/09/17 09:17:13;;;;;;;;;;;;;;;22.73;55.53;101466.16;7396149;19;1510;-37
2023/09/17 09:19:44;;;;;;;;;;;;;;;22.71;55.58;101476.25;7395448;19;1302;-37
2023/09/17 09:22:12;;;;;;;;;;;;;;;22.71;55.53;101474.41;7397367;19;954;-37
2023/09/17 09:24:45;;;;;;;;;;;;;;;22.77;55.41;101478.38;7396403;19;1713;-37
2023/09/17 09:27:13;;;;;;;;;;;;;;;22.76;55.14;101476.66;7393351;19;1846;-37
2023/09/17 09:29:43;;;;;;;;;;;;;;;22.76;55.43;101469.44;7394535;19;1852;-37
2023/09/17 09:32:12;;;;;;;;;;;;;;;22.73;55.17;101476.97;7395412;19;1645;-37
2023/09/17 09:34:40;;;;;;;;;;;;;;;22.72;55.33;101480.63;7396861;19;1558;-37
2023/09/17 09:37:12;;;;;;;;;;;;;;;22.70;55.18;101470.00;7394823;19;1473;-37
2023/09/17 09:39:40;;;;;;;;;;;;;;;22.63;55.22;101456.22;7395566;19;1871;-37
2023/09/17 09:42:11;;;;;;;;;;;;;;;22.63;55.22;101456.22;7393999;19;2021;-38
2023/09/17 09:44:40;;;;;;;;;;;;;;;22.64;55.27;101451.69;7392962;19;1760;-37
2023/09/17 09:47:08;;;;;;;;;;;;;;;22.72;55.02;101457.25;7391041;19;1847;-37
2023/09/17 09:49:41;;;;;;;;;;;;;;;22.66;54.90;101454.25;7391834;19;1574;-37
2023/09/17 09:52:12;;;;;;;;;;;;;;;22.66;55.01;101446.16;7393815;19;1435;-37
2023/09/17 09:54:42;;;;;;;;;;;;;;;22.64;54.95;101457.94;7394011;19;1430;-37
2023/09/17 09:57:13;;;;;;;;;;;;;;;22.65;54.90;101448.00;7394823;19;1199;-37
2023/09/17 09:59:44;;;;;;;;;;;;;;;22.66;54.75;101454.25;7393963;19;1497;-37
2023/09/17 10:02:14;;;;;;;;;;;;;;;22.58;56.24;101447.75;7396733;19;1534;-37
2023/09/17 10:04:42;;;;;;;;;;;;;;;22.70;56.91;101450.25;7402804;19;1509;-37
2023/09/17 10:07:13;;;;;;;;;;;;;;;22.69;57.33;101453.97;7399866;19;1859;-37
2023/09/17 10:09:42;;;;;;;;;;;;;;;22.78;57.96;101447.69;7401485;19;1633;-37
2023/09/17 10:12:11;;;;;;;;;;;;;;;22.72;58.56;101448.28;7401641;19;1609;-37
2023/09/17 10:14:40;;;;;;;;;;;;;;;22.77;58.89;101451.41;7402605;19;1831;-37
2023/09/17 10:17:09;;;;;;;;;;;;;;;22.81;59.46;101442.03;7399864;19;1581;-37
2023/09/17 10:19:37;;;;;;;;;;;;;;;22.77;59.87;101440.63;7402774;19;1896;-37
2023/09/17 10:22:08;;;;;;;;;;;;;;;22.83;60.13;101442.75;7402257;19;1490;-37
2023/09/17 10:24:40;;;;;;;;;;;;;;;22.84;60.22;101444.47;7401090;19;1855;-37
2023/09/17 10:27:10;;;;;;;;;;;;;;;22.84;60.41;101434.50;7399043;19;1908;-37
2023/09/17 10:29:38;;;;;;;;;;;;;;;22.88;60.84;101450.38;7398963;19;1740;-37
2023/09/17 10:32:07;;;;;;;;;;;;;;;22.84;60.59;101431.81;7402196;19;1622;-37
2023/09/17 10:34:36;;;;;;;;;;;;;;;22.83;59.52;101434.66;7402854;19;1021;-37
2023/09/17 10:37:06;;;;;;;;;;;;;;;22.72;59.46;101432.97;7402003;19;1801;-37
2023/09/17 10:39:35;;;;;;;;;;;;;;;22.74;60.53;101440.88;7401868;19;1856;-37
2023/09/17 10:42:08;;;;;;;;;;;;;;;22.80;60.63;101434.91;7400772;19;1856;-37
2023/09/17 10:44:38;;;;;;;;;;;;;;;22.80;61.18;101441.19;7401679;19;1768;-37
2023/09/17 10:47:09;;;;;;;;;;;;;;;22.88;61.40;101436.91;7398902;19;1857;-37
2023/09/17 10:49:39;;;;;;;;;;;;;;;22.70;62.97;101434.09;7401339;19;1779;-38
2023/09/17 10:52:07;;;;;;;;;;;;;;;22.73;62.44;101423.88;7400365;19;1509;-37
2023/09/17 10:54:36;;;;;;;;;;;;;;;22.47;61.83;101428.16;7401199;19;1443;-37
2023/09/17 10:57:11;;;;;;;;;;;;;;;22.41;60.80;101438.50;7399947;19;1840;-37
2023/09/17 10:59:39;;;;;;;;;;;;;;;22.45;59.67;101433.69;7400336;19;1538;-37
2023/09/17 11:02:09;;;;;;;;;;;;;;;22.52;59.16;101429.44;7398048;19;1542;-37
2023/09/17 11:04:38;;;;;;;;;;;;;;;22.38;59.84;101419.06;7400887;19;1237;-37
2023/09/17 11:07:07;;;;;;;;;;;;;;;;;;7398319;19;1845;-37
2023/09/17 11:09:36;;;;;;;;;;;;;;;22.47;60.82;101406.59;7397961;19;1599;-37
2023/09/17 11:12:07;;;;;;;;;;;;;;;22.41;61.21;101414.25;7399225;19;1510;-37
2023/09/17 11:14:36;;;;;;;;;;;;;;;22.43;61.25;101404.19;7397788;19;1376;-37
2023/09/17 11:17:04;;;;;;;;;;;;;;;22.48;60.85;101417.22;7398566;19;1397;-37
2023/09/17 11:19:33;;;;;;;;;;;;;;;22.49;60.88;101405.47;7398870;19;1160;-38
2023/09/17 11:22:11;;;;;;;;;;;;;;;22.42;60.58;101417.78;7399744;19;1687;-37
2023/09/17 11:24:40;;;;;;;;;;;;;;;22.57;60.51;101418.22;7398418;19;1728;-37
2023/09/17 11:27:12;;;;;;;;;;;;;;;22.57;60.54;101424.47;7397172;19;1843;-38
2023/09/17 11:29:41;;;;;;;;;;;;;;;22.53;60.48;101414.97;7399494;19;1447;-37
2023/09/17 11:32:10;;;;;;;;;;;;;;;22.41;61.13;101410.72;7394615;19;1391;-38
2023/09/17 11:34:38;;;;;;;;;;;;;;;22.43;61.48;101400.66;7396496;19;1481;-37
2023/09/17 11:37:07;;;;;;;;;;;;;;;22.48;61.36;101406.44;7398272;19;1319;-37
2023/09/17 11:39:37;;;;;;;;;;;;;;;22.51;61.28;101408.88;7398956;19;1569;-37
2023/09/17 11:42:13;;;;;;;;;;;;;;;22.47;61.23;101383.19;7397943;19;1673;-37
2023/09/17 11:44:44;;;;;;;;;;;;;;;22.57;61.28;101397.50;7398839;19;1542;-38
2023/09/17 11:47:13;;;;;;;;;;;;;;;22.58;60.89;101383.03;7394532;19;1847;-37
2023/09/17 11:49:42;;;;;;;;;;;;;;;22.56;61.30;101390.44;7398569;19;1451;-37
2023/09/17 11:52:13;;;;;;;;;;;;;;;22.61;61.51;101388.13;7396542;19;1882;-37
2023/09/17 11:54:50;;;;;;;;;;;;;;;22.67;61.33;101385.88;7398345;19;1582;-38
2023/09/17 11:57:26;;;;;;;;;;;;;;;22.66;61.12;101373.38;7397539;19;1556;-37
2023/09/17 11:59:58;;;;;;;;;;;;;;;22.60;61.12;101381.06;7396821;19;1718;-37
2023/09/17 12:02:27;;;;;;;;;;;;;;;22.65;61.07;101372.53;7396143;19;1467;-37
2023/09/17 12:04:57;;;;;;;;;;;;;;;22.58;61.11;101372.25;7398410;19;1850;-37
2023/09/17 12:07:27;;;;;;;;;;;;;;;22.57;60.96;101385.88;7397584;19;1841;-37
2023/09/17 12:10:04;;;;;;;;;;;;;;;22.49;61.54;101361.50;7398818;19;1558;-37
2023/09/17 12:12:35;;;;;;;;;;;;;;;22.55;61.36;101369.84;7397541;19;1527;-37
2023/09/17 12:15:06;;;;;;;;;;;;;;;22.61;61.19;101350.41;7397372;19;1431;-37
2023/09/17 12:17:36;;;;;;;;;;;;;;;22.63;61.03;101344.88;7396607;19;1428;-37
2023/09/17 12:23:57;;;;;;;;;;;;;;;22.88;59.97;101348.78;7393023;19;1478;-37
2023/09/17 12:29:40;;;;;;;;;;;;;;;22.91;59.64;101345.78;7387630;19;2262;-37
2023/09/17 12:32:12;;;;;;;;;;;;;;;22.79;59.74;101346.94;7391411;19;1456;-38
2023/09/17 12:34:41;;;;;;;;;;;;;;;22.95;59.48;101346.34;7392215;19;1529;-37
2023/09/17 12:37:11;;;;;;;;;;;;;;;22.97;59.33;101334.38;7393293;19;1149;-37
2023/09/17 12:39:39;;;;;;;;;;;;;;;23.05;58.83;101330.16;7396527;19;1855;-37
2023/09/17 12:42:08;;;;;;;;;;;;;;;22.97;59.05;101322.75;7396192;19;1491;-37
2023/09/17 12:44:36;;;;;;;;;;;;;;;22.91;58.86;101316.09;7395374;19;1561;-37
2023/09/17 12:47:05;;;;;;;;;;;;;;;22.88;58.99;101319.13;7393508;19;1871;-37
2023/09/17 12:49:37;;;;;;;;;;;;;;;22.86;59.22;101325.63;7394149;19;1447;-37
2023/09/17 12:52:06;;;;;;;;;;;;;;;22.86;59.14;101326.50;7394171;19;1542;-44
2023/09/17 12:54:34;;;;;;;;;;;;;;;23.01;58.94;101319.59;7395758;19;1383;-37
2023/09/17 12:57:03;;;;;;;;;;;;;;;23.26;57.93;101311.00;7395694;19;1491;-37
2023/09/17 12:59:31;;;;;;;;;;;;;;;23.50;56.72;101307.75;7397732;19;1621;-37
2023/09/17 13:02:00;;;;;;;;;;;;;;;23.84;56.71;101299.84;7393485;19;1680;-37
2023/09/17 13:04:38;;;;;;;;;;;;;;;23.95;56.80;101306.84;7394290;19;1759;-37
2023/09/17 13:07:10;;;;;;;;;;;;;;;24.08;56.61;101296.50;7395603;19;1862;-37